createdAt,value
2017-10-21T00:02:17.525Z,12.97
2017-10-21T00:04:47.426Z,12.95
2017-10-21T00:07:17.270Z,12.88
2017-10-21T00:09:46.101Z,12.92
2017-10-21T00:12:15.578Z,12.84
2017-10-21T00:14:44.834Z,12.87
2017-10-21T00:17:18.277Z,13.01
2017-10-21T00:19:49.520Z,12.98
2017-10-21T00:22:18.344Z,12.92
2017-10-21T00:24:47.111Z,12.76
2017-10-21T00:27:15.926Z,12.82
2017-10-21T00:29:46.765Z,12.72
2017-10-21T00:32:15.610Z,13.09
2017-10-21T00:34:44.440Z,13.17
2017-10-21T00:37:14.078Z,13.10
2017-10-21T00:39:43.134Z,12.83
2017-10-21T00:42:12.213Z,12.94
2017-10-21T00:44:41.102Z,12.96
2017-10-21T00:47:11.115Z,12.68
2017-10-21T00:49:40.211Z,12.12
2017-10-21T00:52:09.002Z,12.20
2017-10-21T00:54:42.500Z,12.29
2017-10-21T00:57:11.688Z,12.26
2017-10-21T00:59:40.794Z,12.45
2017-10-21T01:02:09.646Z,12.18
2017-10-21T01:04:38.694Z,12.42
2017-10-21T01:07:13.654Z,12.87
2017-10-21T01:09:43.533Z,12.31
2017-10-21T01:12:14.952Z,12.39
2017-10-21T01:14:44.615Z,12.25
2017-10-21T01:17:13.984Z,12.42
2017-10-21T01:19:46.681Z,12.58
2017-10-21T01:22:16.332Z,12.19
2017-10-21T01:24:45.871Z,12.26
2017-10-21T01:27:16.543Z,12.25
2017-10-21T01:29:46.019Z,12.20
2017-10-21T01:32:16.450Z,12.15
2017-10-21T01:34:47.172Z,12.18
2017-10-21T01:37:17.707Z,12.21
2017-10-21T01:39:48.083Z,12.04
2017-10-21T01:42:18.130Z,11.78
2017-10-21T01:44:50.370Z,12.04
2017-10-21T01:47:19.891Z,11.95
2017-10-21T01:49:49.716Z,11.82
2017-10-21T01:52:20.049Z,12.17
2017-10-21T01:54:50.372Z,11.82
2017-10-21T01:57:20.741Z,11.97
2017-10-21T01:59:50.807Z,11.68
2017-10-21T02:02:21.056Z,11.97
2017-10-21T02:04:51.438Z,12.04
2017-10-21T02:07:21.651Z,11.98
2017-10-21T02:09:51.849Z,11.76
2017-10-21T02:12:21.331Z,12.03
2017-10-21T02:14:51.206Z,11.94
2017-10-21T02:17:21.452Z,12.13
2017-10-21T02:19:51.328Z,12.06
2017-10-21T02:22:21.732Z,11.80
2017-10-21T02:24:51.185Z,11.81
2017-10-21T02:27:20.674Z,11.82
2017-10-21T02:29:51.476Z,11.83
2017-10-21T02:32:21.216Z,12.00
2017-10-21T02:34:51.528Z,11.85
2017-10-21T02:37:21.125Z,11.84
2017-10-21T02:39:50.684Z,12.25
2017-10-21T02:42:20.268Z,12.27
2017-10-21T02:44:50.867Z,12.19
2017-10-21T02:47:20.232Z,12.09
2017-10-21T02:49:50.321Z,12.13
2017-10-21T02:52:19.799Z,12.43
2017-10-21T02:54:49.953Z,11.82
2017-10-21T02:57:20.311Z,12.14
2017-10-21T02:59:50.724Z,12.13
2017-10-21T03:02:20.236Z,12.14
2017-10-21T03:04:49.599Z,12.06
2017-10-21T03:07:19.891Z,12.03
2017-10-21T03:09:49.628Z,12.08
2017-10-21T03:12:20.551Z,12.03
2017-10-21T03:14:50.760Z,11.92
2017-10-21T03:17:21.120Z,12.07
2017-10-21T03:19:50.902Z,11.79
2017-10-21T03:22:20.983Z,11.85
2017-10-21T03:24:50.732Z,11.80
2017-10-21T03:27:21.199Z,11.92
2017-10-21T03:29:50.592Z,11.80
2017-10-21T03:32:19.908Z,11.96
2017-10-21T03:34:49.567Z,12.11
2017-10-21T03:37:19.975Z,11.89
2017-10-21T03:39:49.861Z,11.90
2017-10-21T03:42:19.244Z,11.99
2017-10-21T03:44:49.004Z,11.93
2017-10-21T03:47:19.131Z,11.89
2017-10-21T03:49:49.265Z,11.93
2017-10-21T03:52:18.609Z,12.59
2017-10-21T03:54:47.964Z,12.89
2017-10-21T03:57:17.773Z,13.01
2017-10-21T03:59:47.134Z,12.67
2017-10-21T04:02:17.474Z,12.71
2017-10-21T04:04:47.399Z,12.35
2017-10-21T04:07:17.512Z,12.63
2017-10-21T04:09:47.983Z,12.35
2017-10-21T04:12:17.423Z,12.21
2017-10-21T04:14:47.023Z,12.00
2017-10-21T04:17:16.703Z,11.95
2017-10-21T04:19:46.660Z,11.95
2017-10-21T04:22:16.820Z,11.80
2017-10-21T04:24:46.291Z,11.94
2017-10-21T04:27:16.343Z,12.01
2017-10-21T04:29:46.635Z,11.96
2017-10-21T04:32:17.727Z,11.86
2017-10-21T04:34:51.012Z,12.20
2017-10-21T04:37:20.318Z,12.47
2017-10-21T04:39:49.719Z,12.58
2017-10-21T04:42:19.054Z,12.61
2017-10-21T04:44:49.320Z,12.59
2017-10-21T04:47:19.794Z,12.75
2017-10-21T04:49:49.639Z,12.71
2017-10-21T04:52:20.565Z,12.78
2017-10-21T04:54:50.219Z,12.45
2017-10-21T04:57:21.161Z,12.33
2017-10-21T04:59:51.431Z,12.22
2017-10-21T05:02:21.587Z,12.26
2017-10-21T05:04:53.017Z,12.11
2017-10-21T05:07:23.090Z,11.99
2017-10-21T05:09:53.680Z,12.00
2017-10-21T05:12:23.056Z,12.35
2017-10-21T05:14:56.375Z,11.99
2017-10-21T05:17:26.238Z,12.11
2017-10-21T05:20:00.348Z,12.18
2017-10-21T05:22:29.963Z,11.92
2017-10-21T05:25:00.355Z,12.02
2017-10-21T05:27:30.439Z,12.11
2017-10-21T05:29:59.759Z,12.25
2017-10-21T05:32:29.359Z,12.39
2017-10-21T05:35:04.064Z,12.14
2017-10-21T05:37:33.440Z,11.85
2017-10-21T05:40:03.829Z,11.93
2017-10-21T05:42:33.711Z,11.39
2017-10-21T05:45:05.728Z,11.64
2017-10-21T05:47:36.147Z,11.84
2017-10-21T05:50:14.079Z,11.99
2017-10-21T05:52:43.534Z,12.08
2017-10-21T05:55:15.076Z,11.63
2017-10-21T05:57:44.637Z,11.82
2017-10-21T06:00:14.115Z,11.85
2017-10-21T06:02:44.936Z,12.12
2017-10-21T06:05:15.240Z,11.85
2017-10-21T06:07:44.723Z,12.01
2017-10-21T06:10:14.456Z,12.00
2017-10-21T06:12:43.914Z,11.95
2017-10-21T06:15:13.356Z,12.03
2017-10-21T06:17:43.213Z,12.10
2017-10-21T06:20:15.216Z,12.22
2017-10-21T06:22:48.214Z,12.48
2017-10-21T06:25:18.442Z,12.49
2017-10-21T06:27:47.780Z,12.48
2017-10-21T06:30:18.132Z,12.62
2017-10-21T06:32:49.620Z,12.69
2017-10-21T06:35:19.805Z,12.31
2017-10-21T06:37:49.513Z,12.35
2017-10-21T06:40:19.252Z,12.36
2017-10-21T06:42:49.679Z,12.67
2017-10-21T06:45:19.035Z,12.92
2017-10-21T06:47:48.985Z,12.81
2017-10-21T06:50:18.664Z,12.89
2017-10-21T06:52:48.630Z,12.86
2017-10-21T06:55:18.443Z,12.87
2017-10-21T06:57:48.232Z,12.61
2017-10-21T07:00:20.869Z,12.91
2017-10-21T07:02:51.378Z,12.94
2017-10-21T07:05:21.468Z,13.09
2017-10-21T07:10:41.980Z,12.75
2017-10-21T07:13:12.186Z,12.54
2017-10-21T07:15:42.143Z,12.86
2017-10-21T07:18:12.809Z,12.87
2017-10-21T07:20:42.153Z,12.98
2017-10-21T07:23:12.345Z,12.96
2017-10-21T07:25:41.899Z,12.96
2017-10-21T07:28:11.964Z,13.30
2017-10-21T07:30:42.063Z,13.27
2017-10-21T07:33:16.792Z,13.28
2017-10-21T07:35:48.964Z,13.42
2017-10-21T07:38:18.671Z,13.28
2017-10-21T07:40:48.301Z,13.27
2017-10-21T07:43:20.835Z,13.67
2017-10-21T07:45:50.144Z,13.62
2017-10-21T07:48:20.803Z,13.74
2017-10-21T07:50:50.230Z,13.55
2017-10-21T07:53:20.180Z,13.92
2017-10-21T07:55:49.984Z,13.67
2017-10-21T07:58:19.874Z,13.78
2017-10-21T08:00:50.447Z,13.67
2017-10-21T08:03:22.618Z,13.82
2017-10-21T08:05:51.983Z,13.97
2017-10-21T08:08:23.297Z,13.55
2017-10-21T08:10:53.856Z,13.59
2017-10-21T08:13:24.269Z,13.88
2017-10-21T08:15:54.354Z,13.58
2017-10-21T08:18:25.268Z,13.69
2017-10-21T08:20:55.349Z,13.31
2017-10-21T08:23:27.148Z,13.36
2017-10-21T08:25:56.679Z,13.43
2017-10-21T08:28:27.035Z,13.47
2017-10-21T08:30:57.146Z,13.92
2017-10-21T08:33:27.905Z,13.67
2017-10-21T08:35:58.632Z,13.78
2017-10-21T08:38:28.376Z,13.78
2017-10-21T08:40:58.702Z,14.03
2017-10-21T08:43:28.248Z,14.41
2017-10-21T08:46:01.965Z,14.77
2017-10-21T08:48:32.750Z,15.11
2017-10-21T08:51:04.036Z,15.35
2017-10-21T08:53:34.568Z,14.87
2017-10-21T08:58:39.829Z,14.76
2017-10-21T09:01:09.372Z,14.48
2017-10-21T09:03:39.521Z,14.89
2017-10-21T09:06:10.811Z,14.79
2017-10-21T09:08:41.936Z,15.04
2017-10-21T09:11:16.901Z,15.41
2017-10-21T09:13:46.308Z,15.35
2017-10-21T09:16:16.603Z,15.58
2017-10-21T09:18:46.443Z,15.63
2017-10-21T09:21:15.891Z,15.34
2017-10-21T09:23:46.012Z,15.47
2017-10-21T09:26:17.526Z,15.35
2017-10-21T09:28:47.239Z,15.76
2017-10-21T09:31:18.274Z,15.88
2017-10-21T09:33:47.880Z,15.94
2017-10-21T09:36:17.382Z,16.61
2017-10-21T09:38:47.534Z,16.80
2017-10-21T09:41:18.172Z,16.75
2017-10-21T09:43:49.013Z,16.90
2017-10-21T09:46:19.025Z,16.65
2017-10-21T09:48:49.211Z,16.78
2017-10-21T09:51:18.681Z,17.22
2017-10-21T09:53:49.469Z,17.37
2017-10-21T09:56:19.573Z,17.77
2017-10-21T09:58:51.136Z,17.53
2017-10-21T10:01:20.523Z,18.35
2017-10-21T10:03:50.527Z,18.44
2017-10-21T10:06:21.269Z,18.31
2017-10-21T10:08:51.544Z,18.66
2017-10-21T10:11:22.948Z,18.80
2017-10-21T10:13:52.750Z,18.70
2017-10-21T10:16:25.164Z,17.86
2017-10-21T10:19:00.092Z,18.04
2017-10-21T10:21:31.692Z,18.64
2017-10-21T10:24:02.489Z,18.25
2017-10-21T10:26:32.739Z,18.06
2017-10-21T10:29:03.061Z,17.87
2017-10-21T10:31:34.599Z,17.11
2017-10-21T10:34:06.776Z,16.26
2017-10-21T10:36:38.285Z,16.41
2017-10-21T10:39:12.396Z,15.85
2017-10-21T10:41:42.676Z,15.54
2017-10-21T10:44:12.082Z,14.94
2017-10-21T10:46:41.583Z,15.16
2017-10-21T10:49:10.951Z,15.39
2017-10-21T10:51:42.817Z,15.47
2017-10-21T10:54:12.212Z,15.61
2017-10-21T10:56:41.608Z,15.48
2017-10-21T10:59:12.347Z,15.56
2017-10-21T11:01:42.501Z,15.72
2017-10-21T11:04:12.850Z,15.67
2017-10-21T11:06:42.648Z,16.00
2017-10-21T11:09:14.856Z,15.44
2017-10-21T11:11:46.370Z,15.52
2017-10-21T11:14:16.612Z,15.61
2017-10-21T11:16:46.792Z,15.17
2017-10-21T11:19:16.182Z,15.47
2017-10-21T11:21:46.009Z,15.34
2017-10-21T11:24:15.392Z,15.32
2017-10-21T11:26:47.927Z,15.35
2017-10-21T11:29:19.602Z,15.20
2017-10-21T11:31:56.603Z,15.18
2017-10-21T11:34:25.943Z,15.05
2017-10-21T11:36:56.110Z,15.51
2017-10-21T11:39:26.177Z,16.05
2017-10-21T11:41:56.308Z,16.20
2017-10-21T11:44:26.416Z,16.37
2017-10-21T11:46:56.634Z,16.70
2017-10-21T11:49:26.459Z,16.34
2017-10-21T11:51:58.131Z,16.06
2017-10-21T11:54:28.296Z,15.98
2017-10-21T11:56:57.760Z,16.36
2017-10-21T11:59:28.147Z,16.49
2017-10-21T12:01:58.451Z,16.43
2017-10-21T12:04:27.783Z,16.46
2017-10-21T12:06:58.245Z,16.58
2017-10-21T12:09:28.495Z,16.35
2017-10-21T12:11:59.244Z,16.53
2017-10-21T12:14:29.147Z,16.21
2017-10-21T12:17:00.008Z,16.37
2017-10-21T12:19:30.617Z,16.17
2017-10-21T12:22:03.463Z,15.89
2017-10-21T12:24:34.343Z,16.04
2017-10-21T12:27:09.925Z,15.80
2017-10-21T12:29:42.480Z,16.27
2017-10-21T12:32:18.099Z,15.69
2017-10-21T12:34:52.265Z,15.42
2017-10-21T12:37:22.717Z,15.18
2017-10-21T12:39:53.427Z,15.31
2017-10-21T12:42:27.571Z,15.60
2017-10-21T12:44:57.091Z,15.44
2017-10-21T12:47:29.420Z,15.46
2017-10-21T12:50:01.171Z,15.48
2017-10-21T12:52:33.793Z,15.33
2017-10-21T12:55:08.092Z,15.16
2017-10-21T12:58:07.943Z,15.25
2017-10-21T13:01:15.324Z,15.73
2017-10-21T13:03:59.869Z,15.74
2017-10-21T13:06:42.345Z,16.08
2017-10-21T13:09:12.229Z,15.88
2017-10-21T13:11:43.514Z,15.60
2017-10-21T13:14:13.913Z,14.89
2017-10-21T13:16:47.681Z,14.90
2017-10-21T13:19:23.180Z,15.04
2017-10-21T13:22:01.309Z,15.09
2017-10-21T13:24:31.051Z,15.08
2017-10-21T13:27:08.783Z,15.21
2017-10-21T13:29:41.665Z,15.11
2017-10-21T13:32:11.079Z,15.34
2017-10-21T13:34:44.541Z,15.23
2017-10-21T13:37:13.936Z,15.25
2017-10-21T13:39:45.047Z,15.54
2017-10-21T13:42:20.013Z,15.70
2017-10-21T13:44:49.428Z,15.87
2017-10-21T13:47:26.766Z,15.75
2017-10-21T13:50:01.045Z,15.93
2017-10-21T13:52:36.814Z,15.72
2017-10-21T13:55:14.965Z,15.85
2017-10-21T13:57:44.919Z,15.87
2017-10-21T14:00:21.715Z,16.03
2017-10-21T14:02:52.135Z,16.11
2017-10-21T14:05:27.320Z,16.07
2017-10-21T14:08:07.719Z,15.85
2017-10-21T14:11:02.744Z,16.23
2017-10-21T14:19:59.658Z,16.83
2017-10-21T14:25:57.907Z,16.63
2017-10-21T14:28:30.812Z,16.09
2017-10-21T14:31:00.835Z,15.70
2017-10-21T14:33:31.760Z,15.93
2017-10-21T14:36:03.027Z,15.95
2017-10-21T14:38:33.246Z,16.18
2017-10-21T14:41:04.638Z,15.75
2017-10-21T14:43:34.664Z,16.09
2017-10-21T14:46:15.780Z,16.43
2017-10-21T14:48:56.633Z,16.42
2017-10-21T14:54:09.585Z,16.33
2017-10-21T14:56:48.701Z,16.28
2017-10-21T14:59:19.057Z,15.93
2017-10-21T15:01:48.521Z,16.12
2017-10-21T15:04:20.004Z,16.20
2017-10-21T15:06:52.112Z,16.27
2017-10-21T15:09:23.809Z,16.28
2017-10-21T15:11:55.349Z,16.23
2017-10-21T15:14:25.995Z,16.55
2017-10-21T15:16:57.068Z,16.13
2017-10-21T15:19:27.069Z,16.17
2017-10-21T15:22:03.083Z,16.17
2017-10-21T15:24:33.034Z,15.90
2017-10-21T15:27:03.406Z,16.40
2017-10-21T15:29:33.536Z,16.15
2017-10-21T15:32:02.984Z,16.42
2017-10-21T15:34:34.303Z,16.50
2017-10-21T15:37:04.843Z,16.07
2017-10-21T15:39:39.969Z,15.93
2017-10-21T15:42:15.520Z,16.32
2017-10-21T15:44:45.076Z,15.85
2017-10-21T15:47:14.460Z,15.91
2017-10-21T15:49:44.129Z,15.45
2017-10-21T15:52:13.561Z,15.75
2017-10-21T15:54:45.423Z,15.61
2017-10-21T15:57:15.311Z,15.79
2017-10-21T15:59:44.791Z,15.42
2017-10-21T16:02:14.623Z,15.41
2017-10-21T16:04:45.322Z,15.51
2017-10-21T16:14:28.268Z,15.59
2017-10-21T16:16:58.558Z,15.13
2017-10-21T16:19:29.159Z,15.08
2017-10-21T16:22:00.608Z,15.30
2017-10-21T16:24:31.002Z,15.44
2017-10-21T16:27:00.660Z,15.88
2017-10-21T16:29:30.918Z,16.06
2017-10-21T16:32:00.283Z,16.13
2017-10-21T16:34:30.431Z,16.25
2017-10-21T16:37:00.650Z,16.39
2017-10-21T16:43:10.348Z,15.70
2017-10-21T16:45:42.364Z,15.71
2017-10-21T16:48:15.875Z,16.06
2017-10-21T16:52:26.424Z,16.20
2017-10-21T16:55:30.526Z,16.61
2017-10-21T16:58:27.998Z,16.31
2017-10-21T17:01:32.960Z,15.88
2017-10-21T17:17:13.257Z,17.21
2017-10-21T17:19:42.982Z,16.87
2017-10-21T17:22:12.277Z,17.24
2017-10-21T17:24:41.475Z,17.12
2017-10-21T17:27:10.312Z,17.32
2017-10-21T17:29:39.061Z,17.33
2017-10-21T17:32:07.610Z,17.54
2017-10-21T17:34:37.285Z,17.07
2017-10-21T17:37:05.881Z,16.98
2017-10-21T17:39:34.586Z,16.84
2017-10-21T17:42:06.765Z,16.73
2017-10-21T17:44:35.279Z,16.65
2017-10-21T17:47:03.965Z,16.47
2017-10-21T17:49:32.885Z,16.71
2017-10-21T17:52:03.959Z,16.83
2017-10-21T17:54:33.225Z,16.61
2017-10-21T17:57:02.106Z,16.31
2017-10-21T17:59:31.806Z,16.13
2017-10-21T18:02:00.463Z,16.37
2017-10-21T18:04:30.120Z,16.31
2017-10-21T18:06:58.636Z,16.41
2017-10-21T18:09:27.901Z,16.40
2017-10-21T18:11:56.797Z,16.70
2017-10-21T18:14:25.296Z,16.98
2017-10-21T18:16:54.641Z,16.90
2017-10-21T18:19:23.397Z,16.66
2017-10-21T18:21:52.601Z,16.37
2017-10-21T18:24:21.530Z,16.38
2017-10-21T18:26:50.393Z,15.92
2017-10-21T18:29:20.682Z,15.77
2017-10-21T18:31:49.881Z,15.97
2017-10-21T18:34:19.403Z,15.63
2017-10-21T18:36:48.627Z,16.15
2017-10-21T18:39:17.154Z,16.27
2017-10-21T18:41:46.662Z,16.05
2017-10-21T18:44:15.857Z,15.93
2017-10-21T18:46:47.126Z,16.15
2017-10-21T18:49:16.644Z,16.09
2017-10-21T18:51:45.606Z,16.07
2017-10-21T18:54:14.863Z,15.96
2017-10-21T18:56:43.329Z,15.92
2017-10-21T19:08:22.638Z,15.14
2017-10-21T19:10:53.190Z,15.44
2017-10-21T19:13:22.812Z,15.82
2017-10-21T19:19:29.042Z,15.87
2017-10-21T19:22:01.382Z,15.81
2017-10-21T19:24:32.787Z,15.97
2017-10-21T19:27:05.731Z,15.75
2017-10-21T19:29:36.885Z,15.79
2017-10-21T19:32:08.965Z,15.36
2017-10-21T19:34:41.238Z,15.49
2017-10-21T19:37:14.398Z,15.32
2017-10-21T19:39:45.960Z,15.60
2017-10-21T19:42:20.506Z,15.69
2017-10-21T19:44:56.256Z,15.63
2017-10-21T19:47:27.984Z,15.56
2017-10-21T19:53:33.258Z,15.67
2017-10-21T19:59:41.485Z,15.23
2017-10-21T20:02:15.418Z,15.44
2017-10-21T20:04:47.760Z,15.98
2017-10-21T20:07:20.411Z,15.70
2017-10-21T20:13:24.338Z,15.84
2017-10-21T20:15:53.602Z,15.60
2017-10-21T20:18:23.849Z,15.62
2017-10-21T20:20:53.110Z,15.77
2017-10-21T20:23:24.408Z,15.68
2017-10-21T20:25:54.789Z,15.78
2017-10-21T20:28:24.082Z,15.90
2017-10-21T20:30:53.368Z,15.87
2017-10-21T20:33:23.970Z,16.02
2017-10-21T20:35:53.637Z,16.00
2017-10-21T20:38:23.404Z,15.86
2017-10-21T20:40:53.816Z,15.27
2017-10-21T20:43:24.333Z,15.38
2017-10-21T20:45:53.853Z,15.57
2017-10-21T20:48:23.513Z,15.36
2017-10-21T20:50:53.540Z,15.36
2017-10-21T20:53:22.860Z,14.80
2017-10-21T20:55:52.184Z,14.83
2017-10-21T20:58:21.405Z,14.90
2017-10-21T21:00:50.972Z,14.71
2017-10-21T21:03:21.584Z,15.08
2017-10-21T21:05:50.840Z,15.02
2017-10-21T21:08:20.306Z,15.08
2017-10-21T21:10:50.264Z,15.23
2017-10-21T21:13:19.496Z,14.84
2017-10-21T21:15:49.113Z,14.94
2017-10-21T21:18:18.317Z,14.87
2017-10-21T21:20:48.781Z,15.30
2017-10-21T21:23:18.057Z,15.21
2017-10-21T21:25:47.331Z,15.44
2017-10-21T21:28:16.659Z,14.85
2017-10-21T21:30:49.433Z,14.20
2017-10-21T21:33:20.138Z,14.09
2017-10-21T21:35:49.442Z,13.71
2017-10-21T21:38:18.984Z,13.74
2017-10-21T21:40:49.101Z,13.74
2017-10-21T21:43:19.748Z,13.79
2017-10-21T21:45:50.317Z,13.39
2017-10-21T21:48:19.600Z,13.61
2017-10-21T21:50:49.276Z,13.61
2017-10-21T21:53:19.610Z,13.48
2017-10-21T21:55:49.961Z,13.55
2017-10-21T21:58:19.225Z,13.68
2017-10-21T22:00:48.725Z,13.60
2017-10-21T22:03:17.953Z,14.05
2017-10-21T22:05:47.163Z,14.11
2017-10-21T22:08:16.692Z,13.88
2017-10-21T22:10:46.603Z,13.34
2017-10-21T22:13:16.951Z,13.15
2017-10-21T22:15:47.676Z,13.43
2017-10-21T22:18:17.854Z,13.46
2017-10-21T22:20:47.386Z,13.74
2017-10-21T22:23:16.953Z,13.12
2017-10-21T22:25:46.621Z,13.22
2017-10-21T22:28:16.581Z,13.19
2017-10-21T22:30:45.884Z,13.00
2017-10-21T22:33:15.133Z,13.17
2017-10-21T22:35:45.152Z,12.85
2017-10-21T22:38:15.719Z,12.89
2017-10-21T22:40:45.323Z,13.04
2017-10-21T22:43:14.532Z,12.94
2017-10-21T22:45:44.085Z,13.14
2017-10-21T22:48:14.058Z,13.19
2017-10-21T22:50:43.328Z,13.48
2017-10-21T22:53:12.914Z,13.19
2017-10-21T22:55:42.118Z,13.07
2017-10-21T22:58:12.045Z,13.12
2017-10-21T23:00:41.541Z,12.88
2017-10-21T23:03:15.506Z,12.58
2017-10-21T23:05:46.674Z,13.14
2017-10-21T23:08:16.475Z,13.32
2017-10-21T23:10:49.622Z,13.38
2017-10-21T23:13:18.890Z,13.87
2017-10-21T23:15:49.746Z,14.21
2017-10-21T23:18:19.744Z,13.98
2017-10-21T23:20:48.967Z,14.02
2017-10-21T23:23:18.513Z,14.04
2017-10-21T23:25:48.465Z,13.74
2017-10-21T23:28:17.683Z,13.99
2017-10-21T23:30:47.156Z,13.89
2017-10-21T23:33:17.389Z,13.59
2017-10-21T23:35:46.645Z,13.24
2017-10-21T23:38:16.650Z,13.48
2017-10-21T23:40:45.911Z,13.58
2017-10-21T23:43:15.128Z,13.57
2017-10-21T23:45:44.564Z,13.23
2017-10-21T23:48:14.532Z,13.36
2017-10-21T23:50:43.901Z,13.30
2017-10-21T23:53:17.852Z,13.18
2017-10-21T23:55:47.517Z,13.23
2017-10-21T23:58:17.621Z,12.92
